Terminal Aerodrome Forecast
Issued by NWS

Home | Current Version | Previous Version | Graphics & Text | Print | Product List | Glossary On
Versions: 1 2 3 4 5 6 7 8 9 10 11 12 13 14 15 16 17
000
FTUS43 KGRB 192200 AAA
TAFAUW
TAF AMD
KAUW 192218Z 1922/2018 22009G14KT P6SM SCT040 BKN090
      TEMPO 1922/2001 BKN030
     FM200100 22005KT P6SM SCT040 BKN100
     FM200700 29006KT P6SM SCT045 BKN090
     FM201000 31007KT P6SM OVC040
     FM201500 32010KT P6SM BKN025 OVC040=

USA.gov is the U.S. government's official web portal to all federal, state and local government web resources and services.